Santa Monica, Texas
Current Conditions -  °F | °C
As of 9:15 AM on Saturday 22 Nov 2014 (Local Time) from KEBG Reporting Station
Clear Clear  
Wind Chill: 74°   Ceiling: Unl
Heat Index: 74°   Visibility: 10mi
Dew Point: 67°   Wind: 12mph
Humidity: 78%   Direction: 160°SSE
Pressure: 29.94"   Gusts: NA
Location:  26.5112°N, 97.8502°W
Report Text: KEBG 221515Z AUTO 16010KT 10SM CLR 24/20 A2994 RMK AO2 LTG DSNT N AND SE P0001 T02360195
Loading
Personal Weather Stations






























Interactive Weather Map New forecast layout! Learn more

10-Day Weather Forecast

Advertisements
Track Severe Weather on mobile